Time;durP1;ratioP1;P1;durP2;ratioP2;P2;SDS_P1;SDS_P2;PMS_P1;PMS_P2;Temp;Humidity;BMP_temperature;BMP_pressure;BME280_temperature;BME280_humidity;BME280_pressure;Samples;Min_cycle;Max_cycle;Signal;HPM_P1;HPM_P2
2022/09/21 00:00:36;;;;;;;9.15;3.13;;;12.40;99.90;;;;;;4898022;29;20095;-72
2022/09/21 00:03:02;;;;;;;4.80;2.17;;;12.40;99.90;;;;;;4898756;29;20045;-73
2022/09/21 00:05:28;;;;;;;15.88;9.48;;;12.40;99.90;;;;;;4898990;29;20047;-73
2022/09/21 00:07:54;;;;;;;18.13;7.20;;;12.40;99.90;;;;;;4898511;29;20452;-73
2022/09/21 00:10:20;;;;;;;7.40;3.42;;;12.30;99.90;;;;;;4899352;29;20021;-72
2022/09/21 00:12:47;;;;;;;3.55;2.78;;;12.30;99.90;;;;;;4898662;29;20037;-72
2022/09/21 00:15:16;;;;;;;5.60;2.88;;;12.30;99.90;;;;;;4898873;29;20079;-72
2022/09/21 00:17:42;;;;;;;5.47;2.80;;;12.30;99.90;;;;;;4898716;29;20040;-72
2022/09/21 00:20:08;;;;;;;5.25;2.53;;;12.30;99.90;;;;;;4898530;29;20040;-72
2022/09/21 00:22:34;;;;;;;9.05;2.65;;;12.30;99.90;;;;;;4899311;29;20096;-72
2022/09/21 00:25:02;;;;;;;9.00;2.80;;;12.30;99.90;;;;;;4898543;29;20040;-72
2022/09/21 00:27:28;;;;;;;7.43;3.38;;;12.30;99.90;;;;;;4898435;29;20045;-73
2022/09/21 00:30:02;;;;;;;4.70;2.85;;;12.20;99.90;;;;;;4898430;29;20036;-73
2022/09/21 00:32:32;;;;;;;5.45;3.20;;;12.30;99.90;;;;;;4897212;29;20136;-72
2022/09/21 00:34:59;;;;;;;10.70;3.17;;;12.30;99.90;;;;;;4898313;29;20057;-72
2022/09/21 00:37:26;;;;;;;5.85;2.60;;;12.30;99.90;;;;;;4898785;29;20021;-71
2022/09/21 00:39:52;;;;;;;4.10;2.95;;;12.20;99.90;;;;;;4898229;29;20132;-72
2022/09/21 00:42:25;;;;;;;7.32;3.17;;;12.30;99.90;;;;;;4898297;29;20455;-73
2022/09/21 00:44:51;;;;;;;13.95;3.28;;;12.30;99.90;;;;;;4898181;29;20204;-72
2022/09/21 00:47:21;;;;;;;7.20;3.33;;;12.30;99.90;;;;;;4897982;29;20067;-73
2022/09/21 00:49:50;;;;;;;8.00;3.33;;;12.30;99.90;;;;;;4898634;29;20048;-72
2022/09/21 00:52:18;;;;;;;6.82;3.50;;;12.20;99.90;;;;;;4898122;29;20463;-72
2022/09/21 00:54:48;;;;;;;;;;;12.20;99.90;;;;;;4898360;29;20459;-71
2022/09/21 00:57:15;;;;;;;7.82;2.95;;;12.20;99.90;;;;;;4898017;29;19931;-72
2022/09/21 00:59:43;;;;;;;6.88;2.97;;;12.20;99.90;;;;;;4897923;29;20033;-72
2022/09/21 01:02:09;;;;;;;;;;;12.20;99.90;;;;;;4898066;29;20039;-72
2022/09/21 01:04:37;;;;;;;7.70;3.35;;;12.10;99.90;;;;;;4898217;29;19911;-72
2022/09/21 01:07:10;;;;;;;8.57;3.60;;;12.10;99.90;;;;;;4898014;29;20372;-72
2022/09/21 01:09:36;;;;;;;6.55;3.33;;;12.10;99.90;;;;;;4893275;29;20056;-73
2022/09/21 01:12:29;;;;;;;6.88;3.05;;;12.00;99.90;;;;;;4878939;29;20033;-73
2022/09/21 01:15:37;;;;;;;7.10;3.63;;;11.90;99.90;;;;;;4878008;29;20117;-72
2022/09/21 01:18:31;;;;;;;9.32;3.38;;;11.90;99.90;;;;;;4878883;29;20041;-71
2022/09/21 01:21:02;;;;;;;7.95;3.45;;;11.90;99.90;;;;;;4878948;29;20053;-72
2022/09/21 01:23:42;;;;;;;11.55;3.30;;;11.90;99.90;;;;;;4879077;29;20040;-73
2022/09/21 01:26:20;;;;;;;10.30;3.40;;;11.90;99.90;;;;;;4878701;29;20029;-71
2022/09/21 01:29:02;;;;;;;8.05;3.42;;;11.90;99.90;;;;;;4879115;29;20049;-71
2022/09/21 01:31:38;;;;;;;7.68;3.72;;;11.90;99.90;;;;;;4897330;29;20057;-72
2022/09/21 01:34:14;;;;;;;6.35;3.88;;;11.90;99.90;;;;;;4897654;29;20056;-71
2022/09/21 01:36:41;;;;;;;7.97;3.80;;;11.80;99.90;;;;;;4911377;29;20386;-71
2022/09/21 01:39:11;;;;;;;6.85;3.72;;;11.80;99.90;;;;;;4905879;29;20048;-72
2022/09/21 01:41:40;;;;;;;6.95;3.60;;;11.90;99.90;;;;;;4916161;29;20216;-72
2022/09/21 01:44:11;;;;;;;6.75;3.45;;;11.90;99.90;;;;;;4915987;29;20127;-71
2022/09/21 01:46:38;;;;;;;7.18;3.80;;;11.90;99.90;;;;;;4916721;29;20083;-71
2022/09/21 01:49:23;;;;;;;6.43;3.42;;;11.70;99.90;;;;;;4916045;29;20032;-71
2022/09/21 01:52:01;;;;;;;13.13;3.55;;;11.70;99.90;;;;;;4914666;29;20501;-71
2022/09/21 01:54:34;;;;;;;;;;;11.80;99.90;;;;;;4916218;29;20047;-73
2022/09/21 01:57:11;;;;;;;9.02;4.25;;;11.80;99.90;;;;;;4915794;29;19955;-71
2022/09/21 01:59:49;;;;;;;12.02;4.55;;;11.80;99.90;;;;;;4915685;29;20036;-72
2022/09/21 02:02:24;;;;;;;9.93;4.10;;;11.60;99.90;;;;;;4915897;29;20028;-71
2022/09/21 02:04:50;;;;;;;8.75;4.55;;;11.50;99.90;;;;;;4914873;29;20106;-72
2022/09/21 02:07:17;;;;;;;9.52;3.78;;;11.60;99.90;;;;;;4915697;29;20430;-72
2022/09/21 02:09:45;;;;;;;8.90;4.38;;;11.60;99.90;;;;;;4931006;29;20058;-72
2022/09/21 02:12:11;;;;;;;11.57;4.53;;;11.60;99.90;;;;;;4934401;29;20036;-73
2022/09/21 02:14:38;;;;;;;11.27;4.22;;;11.70;99.90;;;;;;4934476;29;20054;-73
2022/09/21 02:17:41;;;;;;;12.38;4.63;;;11.70;99.90;;;;;;4917387;29;20035;-73
2022/09/21 02:20:21;;;;;;;8.10;4.47;;;11.50;99.90;;;;;;4912188;29;20043;-72
2022/09/21 02:23:03;;;;;;;8.75;4.25;;;11.40;99.90;;;;;;4935102;29;20323;-72
2022/09/21 02:26:05;;;;;;;6.68;3.95;;;11.50;99.90;;;;;;4915488;29;20043;-72
2022/09/21 02:28:54;;;;;;;11.88;4.50;;;11.50;99.90;;;;;;4934564;29;20036;-72
2022/09/21 02:31:45;;;;;;;8.32;4.30;;;11.60;99.90;;;;;;4936189;29;20036;-73
2022/09/21 02:34:33;;;;;;;8.93;4.20;;;11.50;99.90;;;;;;4933560;28;20056;-73
2022/09/21 02:37:15;;;;;;;27.90;15.57;;;11.40;99.90;;;;;;4934038;29;20024;-71
2022/09/21 02:39:57;;;;;;;37.83;20.67;;;11.30;99.90;;;;;;4934001;29;20032;-72
2022/09/21 02:42:27;;;;;;;14.55;8.60;;;11.30;99.90;;;;;;4934089;29;20032;-73
2022/09/21 02:45:27;;;;;;;10.88;4.45;;;11.30;99.90;;;;;;4917225;29;20051;-72
2022/09/21 02:48:04;;;;;;;6.05;4.22;;;11.30;99.90;;;;;;4883242;29;20041;-71
2022/09/21 02:50:37;;;;;;;8.07;4.47;;;11.20;99.90;;;;;;4896948;29;20037;-72
2022/09/21 02:53:04;;;;;;;9.05;4.63;;;11.20;99.90;;;;;;4896262;29;20020;-73
2022/09/21 02:55:32;;;;;;;10.35;4.40;;;11.20;99.90;;;;;;4896511;29;20032;-73
2022/09/21 02:58:00;;;;;;;6.80;4.40;;;11.20;99.90;;;;;;4896158;29;20149;-71
2022/09/21 03:00:26;;;;;;;10.38;4.65;;;11.20;99.90;;;;;;4896318;29;20037;-74
2022/09/21 03:02:52;;;;;;;7.57;4.80;;;11.10;99.90;;;;;;4896055;29;20482;-71
2022/09/21 03:05:17;;;;;;;15.07;4.57;;;11.20;99.90;;;;;;4896876;29;20044;-72
2022/09/21 03:07:43;;;;;;;8.75;4.15;;;11.10;99.90;;;;;;4896601;29;20040;-71
2022/09/21 03:10:09;;;;;;;13.10;5.25;;;11.10;99.90;;;;;;4897940;29;20069;-73
2022/09/21 03:12:35;;;;;;;9.52;4.95;;;11.10;99.90;;;;;;4896198;29;20068;-73
2022/09/21 03:15:01;;;;;;;13.48;4.50;;;11.00;99.90;;;;;;4914621;29;20075;-73
2022/09/21 03:17:27;;;;;;;8.90;3.90;;;11.00;99.90;;;;;;4914442;29;20044;-74
2022/09/21 03:19:55;;;;;;;6.47;4.35;;;11.00;99.90;;;;;;4914545;29;20122;-72
2022/09/21 03:22:23;;;;;;;10.80;4.82;;;11.00;99.90;;;;;;4914114;29;20052;-73
2022/09/21 03:24:49;;;;;;;10.30;4.80;;;11.00;99.90;;;;;;4914407;29;20032;-72
2022/09/21 03:27:17;;;;;;;8.38;4.85;;;10.90;99.90;;;;;;4897531;29;20486;-71
2022/09/21 03:29:44;;;;;;;7.75;5.25;;;10.90;99.90;;;;;;4914203;29;20040;-72
2022/09/21 03:32:09;;;;;;;10.02;5.40;;;10.80;99.90;;;;;;4914037;29;20020;-73
2022/09/21 03:34:35;;;;;;;13.80;5.82;;;10.90;99.90;;;;;;4914657;29;20047;-71
2022/09/21 03:37:03;;;;;;;16.23;5.85;;;10.90;99.90;;;;;;4914101;29;20467;-72
2022/09/21 03:39:28;;;;;;;10.80;5.82;;;10.90;99.90;;;;;;4897536;29;20028;-73
2022/09/21 03:41:55;;;;;;;12.65;5.72;;;11.00;99.90;;;;;;4914333;29;20051;-71
2022/09/21 03:44:22;;;;;;;11.10;6.07;;;11.00;99.90;;;;;;4897709;29;20069;-73
2022/09/21 03:46:49;;;;;;;9.43;5.65;;;11.00;99.90;;;;;;4916267;29;20039;-73
2022/09/21 03:49:14;;;;;;;10.43;5.47;;;11.00;99.90;;;;;;4917384;29;20047;-73
2022/09/21 03:51:40;;;;;;;7.45;4.80;;;11.00;99.90;;;;;;4917662;29;20462;-72
2022/09/21 03:54:06;;;;;;;8.80;5.05;;;11.10;99.90;;;;;;4916955;29;20451;-72
2022/09/21 03:56:31;;;;;;;7.90;5.28;;;11.10;99.90;;;;;;4913200;29;20103;-74
2022/09/21 03:58:57;;;;;;;12.98;5.00;;;11.10;99.90;;;;;;4914429;29;20055;-72
2022/09/21 04:01:23;;;;;;;9.75;5.43;;;11.00;99.90;;;;;;4915164;29;20032;-73
2022/09/21 04:03:48;;;;;;;16.67;6.80;;;11.00;99.90;;;;;;4914046;29;20036;-72
2022/09/21 04:06:14;;;;;;;12.02;6.05;;;11.00;99.90;;;;;;4914301;29;20420;-73
2022/09/21 04:08:40;;;;;;;13.05;5.68;;;11.00;99.90;;;;;;4913511;29;20111;-72
2022/09/21 04:11:17;;;;;;;11.35;5.63;;;11.00;99.90;;;;;;4913980;29;20042;-72
2022/09/21 04:13:44;;;;;;;12.23;5.38;;;11.00;99.90;;;;;;4914630;29;20068;-72
2022/09/21 04:16:10;;;;;;;14.40;5.85;;;11.00;99.90;;;;;;4913907;29;20036;-71
2022/09/21 04:18:37;;;;;;;10.38;6.05;;;11.00;99.90;;;;;;4914110;29;20036;-72
2022/09/21 04:21:04;;;;;;;15.00;5.25;;;11.00;99.90;;;;;;4914276;29;20072;-72
2022/09/21 04:23:30;;;;;;;21.05;7.10;;;11.00;99.90;;;;;;4913964;29;20459;-71
2022/09/21 04:25:56;;;;;;;10.27;6.03;;;11.00;99.90;;;;;;4914335;29;20067;-72
2022/09/21 04:28:22;;;;;;;15.68;5.90;;;11.00;99.90;;;;;;4914832;29;20036;-72
2022/09/21 04:30:53;;;;;;;9.63;5.43;;;11.10;99.90;;;;;;4914429;29;20060;-71
2022/09/21 04:33:19;;;;;;;9.88;5.38;;;11.10;99.90;;;;;;4915031;29;20036;-72
2022/09/21 04:35:44;;;;;;;8.98;5.13;;;11.10;99.90;;;;;;4917384;29;20293;-72
2022/09/21 04:38:11;;;;;;;10.07;5.65;;;11.00;99.90;;;;;;4917682;29;20048;-73
2022/09/21 04:40:37;;;;;;;11.93;5.43;;;11.00;99.90;;;;;;4917712;29;20032;-71
2022/09/21 04:43:03;;;;;;;10.75;5.90;;;11.00;99.90;;;;;;4917553;29;20032;-73
2022/09/21 04:45:29;;;;;;;15.43;5.95;;;10.90;99.90;;;;;;4916552;29;20458;-73
2022/09/21 04:47:55;;;;;;;11.95;5.50;;;10.90;99.90;;;;;;4918718;29;20050;-72
2022/09/21 04:50:21;;;;;;;11.48;5.88;;;10.90;99.90;;;;;;4917725;29;20391;-72
2022/09/21 04:52:46;;;;;;;15.35;6.30;;;10.90;99.90;;;;;;4918249;29;20499;-72
2022/09/21 04:55:12;;;;;;;13.98;6.28;;;10.90;99.90;;;;;;4917737;29;20037;-72
2022/09/21 04:57:38;;;;;;;11.90;6.78;;;10.80;99.90;;;;;;4917471;29;20099;-71
2022/09/21 05:00:04;;;;;;;11.93;6.55;;;10.80;99.90;;;;;;4917200;29;20047;-71
2022/09/21 05:02:30;;;;;;;10.85;6.70;;;10.80;99.90;;;;;;4917341;29;20112;-73
2022/09/21 05:04:56;;;;;;;12.90;6.53;;;10.80;99.90;;;;;;4917019;29;20028;-72
2022/09/21 05:07:21;;;;;;;14.40;7.40;;;10.70;99.90;;;;;;4917751;29;20327;-72
2022/09/21 05:10:02;;;;;;;14.13;6.70;;;10.80;99.90;;;;;;4917581;29;20083;-73
2022/09/21 05:12:29;;;;;;;11.90;6.05;;;10.90;99.90;;;;;;4916784;29;20044;-70
2022/09/21 05:14:54;;;;;;;15.50;6.15;;;10.90;99.90;;;;;;4917474;29;20107;-73
2022/09/21 05:17:21;;;;;;;12.88;6.80;;;11.00;99.90;;;;;;4917238;29;20123;-73
2022/09/21 05:19:52;;;;;;;14.15;6.50;;;11.00;99.90;;;;;;4916384;29;20191;-72
2022/09/21 05:22:18;;;;;;;11.50;5.65;;;11.00;99.90;;;;;;4919902;29;20044;-74
2022/09/21 05:24:44;;;;;;;12.75;6.13;;;10.90;99.90;;;;;;4920245;29;20028;-72
2022/09/21 05:27:10;;;;;;;10.07;5.88;;;10.90;99.90;;;;;;4919987;29;20394;-71
2022/09/21 05:29:36;;;;;;;9.65;5.25;;;10.80;99.90;;;;;;4918423;29;20058;-73
2022/09/21 05:32:05;;;;;;;11.88;5.60;;;10.80;99.90;;;;;;4916203;29;20042;-74
2022/09/21 05:35:11;;;;;;;14.30;6.78;;;10.80;99.90;;;;;;4916798;29;20028;-73
2022/09/21 05:38:06;;;;;;;10.52;6.13;;;10.80;99.90;;;;;;4916420;29;20052;-73
2022/09/21 05:40:33;;;;;;;10.25;6.30;;;10.70;99.90;;;;;;4906462;29;20159;-73
2022/09/21 05:42:58;;;;;;;11.20;5.78;;;10.70;99.90;;;;;;4916524;29;20039;-72
2022/09/21 05:45:25;;;;;;;11.85;5.93;;;10.80;99.90;;;;;;4915572;29;20028;-72
2022/09/21 05:48:16;;;;;;;10.25;6.25;;;10.80;99.90;;;;;;4900931;29;20074;-73
2022/09/21 05:50:51;;;;;;;20.50;7.20;;;10.90;99.90;;;;;;4916424;29;20036;-73
2022/09/21 05:53:51;;;;;;;10.52;6.13;;;10.80;99.90;;;;;;4916029;29;20028;-72
2022/09/21 05:56:42;;;;;;;12.85;6.30;;;10.80;99.90;;;;;;4885013;29;20574;-73
2022/09/21 05:59:44;;;;;;;13.70;7.43;;;10.80;99.90;;;;;;4915743;29;20040;-71
2022/09/21 06:02:21;;;;;;;11.48;6.70;;;10.80;99.90;;;;;;4905420;29;20056;-71
2022/09/21 06:04:48;;;;;;;13.88;7.82;;;10.80;99.90;;;;;;4915886;29;20028;-72
2022/09/21 06:07:14;;;;;;;15.95;7.93;;;10.80;99.90;;;;;;4915701;29;20436;-71
2022/09/21 06:09:39;;;;;;;17.55;9.20;;;10.90;99.90;;;;;;4915461;29;20123;-70
2022/09/21 06:12:05;;;;;;;16.33;8.30;;;11.00;99.90;;;;;;4915447;29;20028;-72
2022/09/21 06:14:31;;;;;;;14.80;7.53;;;11.00;99.90;;;;;;4915783;29;20090;-71
2022/09/21 06:16:56;;;;;;;16.58;7.78;;;11.00;99.90;;;;;;4915842;29;20104;-72
2022/09/21 06:19:22;;;;;;;14.07;7.53;;;11.10;99.90;;;;;;4916115;29;20092;-72
2022/09/21 06:21:48;;;;;;;17.92;8.05;;;11.10;99.90;;;;;;4915343;29;20516;-72
2022/09/21 06:24:13;;;;;;;14.55;7.88;;;11.10;99.90;;;;;;4913868;29;20039;-74
2022/09/21 06:26:39;;;;;;;17.00;7.70;;;11.10;99.90;;;;;;4915175;29;20024;-72
2022/09/21 06:29:05;;;;;;;14.95;7.63;;;11.20;99.90;;;;;;4915571;29;20444;-75
2022/09/21 06:31:32;;;;;;;13.18;7.60;;;11.20;99.90;;;;;;4915584;29;20067;-72
2022/09/21 06:33:58;;;;;;;15.27;8.20;;;11.30;99.90;;;;;;4915254;29;20032;-73
2022/09/21 06:36:23;;;;;;;16.75;8.23;;;11.30;99.90;;;;;;4914857;29;20036;-73
2022/09/21 06:38:49;;;;;;;15.63;8.25;;;11.30;99.90;;;;;;4915012;29;20043;-73
2022/09/21 06:41:15;;;;;;;22.67;8.02;;;11.40;99.90;;;;;;4915196;29;20036;-73
2022/09/21 06:43:40;;;;;;;21.10;9.07;;;11.40;99.90;;;;;;4915380;29;20031;-73
2022/09/21 06:46:06;;;;;;;20.92;8.15;;;11.50;99.90;;;;;;4907067;29;20040;-73
2022/09/21 06:48:33;;;;;;;17.60;8.43;;;11.40;99.90;;;;;;4915080;29;20051;-73
2022/09/21 06:51:03;;;;;;;14.82;8.30;;;11.50;99.90;;;;;;4914627;29;20063;-71
2022/09/21 06:53:31;;;;;;;18.20;8.32;;;11.50;99.90;;;;;;4897692;29;20436;-74
2022/09/21 06:56:05;;;;;;;20.98;8.68;;;11.60;99.90;;;;;;4914446;29;20067;-73
2022/09/21 06:58:33;;;;;;;24.67;11.18;;;11.60;99.90;;;;;;4898233;29;20027;-73
2022/09/21 07:01:10;;;;;;;24.77;9.30;;;11.70;99.90;;;;;;4914413;29;20036;-71
2022/09/21 07:03:37;;;;;;;20.60;7.55;;;11.70;99.90;;;;;;4914438;29;20554;-72
2022/09/21 07:06:03;;;;;;;16.58;9.60;;;11.80;99.90;;;;;;4914292;29;20044;-71
2022/09/21 07:08:28;;;;;;;29.25;10.07;;;11.80;99.90;;;;;;4914787;29;20126;-72
2022/09/21 07:11:06;;;;;;;16.08;8.38;;;11.80;99.90;;;;;;4916301;29;20519;-72
2022/09/21 07:13:31;;;;;;;16.60;7.60;;;11.90;99.90;;;;;;4914936;29;20028;-72
2022/09/21 07:15:57;;;;;;;19.30;8.50;;;11.90;99.90;;;;;;4914631;29;20051;-73
2022/09/21 07:18:23;;;;;;;25.33;8.35;;;12.00;99.90;;;;;;4914681;29;20424;-74
2022/09/21 07:20:48;;;;;;;18.05;8.13;;;12.00;99.90;;;;;;4913531;29;20455;-75
2022/09/21 07:23:16;;;;;;;15.52;7.70;;;12.10;99.90;;;;;;4914771;29;20032;-75
2022/09/21 07:25:43;;;;;;;12.13;7.75;;;12.10;99.90;;;;;;4915469;29;20043;-73
2022/09/21 07:28:10;;;;;;;21.43;7.67;;;12.20;99.90;;;;;;4897554;29;20032;-73
2022/09/21 07:30:37;;;;;;;18.15;8.15;;;12.20;99.90;;;;;;4914159;29;20043;-73
2022/09/21 07:33:03;;;;;;;23.15;8.15;;;12.20;99.90;;;;;;4914214;29;20187;-74
2022/09/21 07:35:29;;;;;;;17.33;7.82;;;12.40;99.90;;;;;;4914129;29;20043;-74
2022/09/21 07:38:00;;;;;;;16.30;7.68;;;12.30;99.90;;;;;;4914096;29;20024;-74
2022/09/21 07:40:25;;;;;;;15.38;7.38;;;12.40;99.90;;;;;;4914641;29;20024;-73
2022/09/21 07:42:51;;;;;;;20.17;7.22;;;12.50;99.90;;;;;;4914070;29;20036;-73
2022/09/21 07:45:17;;;;;;;11.25;7.00;;;12.50;99.90;;;;;;4914416;29;20363;-73
2022/09/21 07:47:43;;;;;;;18.45;6.95;;;12.60;99.90;;;;;;4914362;29;20370;-73
2022/09/21 07:50:09;;;;;;;14.45;6.95;;;12.60;99.90;;;;;;4914076;29;20024;-74
2022/09/21 07:52:34;;;;;;;15.75;7.60;;;12.60;99.90;;;;;;4913674;29;20105;-74
2022/09/21 07:55:00;;;;;;;14.68;6.95;;;12.60;99.90;;;;;;4914164;29;20047;-75
2022/09/21 08:00:11;;;;;;;13.93;7.40;;;12.80;99.90;;;;;;4914189;29;20043;-73
2022/09/21 08:02:37;;;;;;;15.07;6.55;;;12.80;99.90;;;;;;4912850;29;20036;-74
2022/09/21 08:05:03;;;;;;;16.58;7.55;;;12.80;99.90;;;;;;4896952;29;20169;-71
2022/09/21 08:07:29;;;;;;;15.40;6.13;;;12.90;99.90;;;;;;4914296;29;20455;-72
2022/09/21 08:09:54;;;;;;;11.82;5.40;;;12.90;99.90;;;;;;4916229;29;20044;-72
2022/09/21 08:12:20;;;;;;;14.35;5.28;;;13.00;99.90;;;;;;4917536;29;20107;-75
2022/09/21 08:14:49;;;;;;;12.15;4.78;;;12.90;99.90;;;;;;4917830;29;20044;-82
2022/09/21 08:17:14;;;;;;;14.15;5.40;;;13.10;99.90;;;;;;4917502;29;20455;-73
2022/09/21 08:19:40;;;;;;;15.65;5.72;;;13.20;99.90;;;;;;4916927;29;20047;-73
2022/09/21 08:22:06;;;;;;;10.35;5.18;;;13.20;99.90;;;;;;4917468;29;20056;-73
2022/09/21 08:24:32;;;;;;;25.77;5.95;;;13.30;99.90;;;;;;4917530;29;20043;-73
2022/09/21 08:26:59;;;;;;;14.75;5.28;;;13.40;99.90;;;;;;4917373;29;20447;-71
2022/09/21 08:29:25;;;;;;;12.38;5.18;;;13.60;99.90;;;;;;4917529;29;20036;-73
2022/09/21 08:31:52;;;;;;;16.88;4.65;;;13.60;99.30;;;;;;4917822;29;20039;-72
2022/09/21 08:34:18;;;;;;;10.52;4.85;;;13.70;99.20;;;;;;4917333;29;20127;-74
2022/09/21 08:36:45;;;;;;;15.07;4.18;;;13.60;99.10;;;;;;4916823;29;20051;-76
2022/09/21 08:39:11;;;;;;;11.25;5.28;;;13.80;99.30;;;;;;4917120;29;20129;-74
2022/09/21 08:41:43;;;;;;;13.93;5.43;;;13.80;99.20;;;;;;4916886;29;20045;-73
2022/09/21 08:44:34;;;;;;;13.15;4.78;;;14.00;99.00;;;;;;4916939;29;20108;-72
2022/09/21 08:47:14;;;;;;;16.67;5.05;;;14.00;99.00;;;;;;4916352;29;20053;-73
2022/09/21 08:49:45;;;;;;;20.88;5.10;;;14.30;98.90;;;;;;4917288;29;20103;-74
2022/09/21 08:52:13;;;;;;;16.38;5.10;;;15.40;98.60;;;;;;4917271;29;20091;-73
2022/09/21 08:54:51;;;;;;;13.77;4.72;;;16.70;98.90;;;;;;4900122;29;20075;-73
2022/09/21 08:57:18;;;;;;;13.35;4.25;;;17.50;97.90;;;;;;4916747;29;20058;-73
2022/09/21 08:59:46;;;;;;;9.60;3.30;;;18.00;96.30;;;;;;4916654;29;20036;-72
2022/09/21 09:02:23;;;;;;;14.68;4.43;;;18.80;96.60;;;;;;4899548;29;20098;-72
2022/09/21 09:05:17;;;;;;;6.43;3.90;;;19.80;96.60;;;;;;4916114;29;20454;-73
2022/09/21 09:08:20;;;;;;;8.60;3.55;;;21.10;94.20;;;;;;4897439;29;20128;-73
2022/09/21 09:10:51;;;;;;;8.65;2.70;;;22.40;92.90;;;;;;4917033;29;20055;-71
2022/09/21 09:13:18;;;;;;;11.32;3.35;;;23.60;89.40;;;;;;4915678;29;20056;-72
2022/09/21 09:15:43;;;;;;;8.80;2.20;;;24.20;90.10;;;;;;4915191;29;20036;-71
2022/09/21 09:18:15;;;;;;;8.13;2.60;;;25.00;86.90;;;;;;4916390;29;20059;-72
2022/09/21 09:20:57;;;;;;;11.00;3.00;;;25.50;81.30;;;;;;4914835;29;20036;-73
2022/09/21 09:23:50;;;;;;;8.82;2.75;;;26.00;79.80;;;;;;4916357;29;20035;-74
2022/09/21 09:26:29;;;;;;;7.68;2.45;;;26.20;75.60;;;;;;4915922;29;20032;-74
2022/09/21 09:29:03;;;;;;;7.43;2.65;;;26.60;73.30;;;;;;4916353;29;20086;-73
2022/09/21 09:31:34;;;;;;;9.07;2.42;;;27.30;70.50;;;;;;4916848;29;20024;-73
2022/09/21 09:34:23;;;;;;;8.35;2.95;;;28.00;71.60;;;;;;4899500;29;20025;-75
2022/09/21 09:37:16;;;;;;;12.75;1.95;;;27.90;68.80;;;;;;4916181;29;20055;-73
2022/09/21 09:39:53;;;;;;;8.95;1.83;;;28.00;66.60;;;;;;4908079;29;20066;-74
2022/09/21 09:42:21;;;;;;;7.30;2.10;;;27.90;65.30;;;;;;4899210;29;20032;-75
2022/09/21 09:44:50;;;;;;;4.30;1.42;;;28.70;63.30;;;;;;4916304;29;20483;-74
2022/09/21 09:47:36;;;;;;;6.47;1.80;;;28.60;60.10;;;;;;4915982;29;20438;-74
2022/09/21 09:50:26;;;;;;;8.60;1.65;;;29.40;57.90;;;;;;4916187;29;20403;-74
2022/09/21 09:52:57;;;;;;;8.35;1.90;;;29.20;55.80;;;;;;4915832;29;20028;-74
2022/09/21 09:55:29;;;;;;;5.28;1.77;;;29.40;56.00;;;;;;4916887;29;20067;-74
2022/09/21 09:57:55;;;;;;;9.70;2.40;;;29.10;54.30;;;;;;4898962;29;20435;-74
2022/09/21 10:00:21;;;;;;;6.40;2.08;;;29.40;56.20;;;;;;4915610;29;20028;-72
2022/09/21 10:02:56;;;;;;;6.50;1.80;;;29.60;53.10;;;;;;4898664;29;20526;-73
2022/09/21 10:05:32;;;;;;;7.78;1.88;;;30.30;53.30;;;;;;4915544;29;20477;-73
2022/09/21 10:07:59;;;;;;;7.85;2.35;;;30.70;53.50;;;;;;4915319;29;20032;-74
2022/09/21 10:10:36;;;;;;;6.07;1.83;;;30.50;51.00;;;;;;4917034;29;20104;-76
2022/09/21 10:13:18;;;;;;;8.02;2.13;;;30.30;53.30;;;;;;4914749;29;20063;-73
2022/09/21 10:15:56;;;;;;;7.57;2.10;;;30.20;50.70;;;;;;4915376;29;20047;-72
2022/09/21 10:18:38;;;;;;;6.90;2.05;;;30.80;50.60;;;;;;4915252;29;20032;-74
2022/09/21 10:21:15;;;;;;;8.23;2.33;;;31.20;51.50;;;;;;4915069;29;20108;-73
2022/09/21 10:23:49;;;;;;;8.30;2.50;;;31.40;50.50;;;;;;4915340;29;20123;-73
2022/09/21 10:26:17;;;;;;;20.88;10.68;;;32.10;48.80;;;;;;4915234;29;20028;-73
2022/09/21 10:29:00;;;;;;;8.88;2.67;;;30.50;49.00;;;;;;4915734;29;20063;-73
2022/09/21 10:31:28;;;;;;;6.65;1.70;;;30.80;49.30;;;;;;4894886;29;20040;-73
2022/09/21 10:34:06;;;;;;;8.00;2.30;;;31.00;50.50;;;;;;4912550;29;20138;-72
2022/09/21 10:36:37;;;;;;;9.00;1.90;;;31.10;47.20;;;;;;4901970;29;20036;-74
2022/09/21 10:39:24;;;;;;;11.40;2.08;;;31.00;47.70;;;;;;4896142;29;20083;-72
2022/09/21 10:42:01;;;;;;;6.88;1.60;;;30.70;48.40;;;;;;4896150;29;20047;-74
2022/09/21 10:44:52;;;;;;;6.03;1.58;;;31.10;46.90;;;;;;4896017;29;20035;-72
2022/09/21 10:47:27;;;;;;;9.13;2.10;;;29.50;47.20;;;;;;4888139;29;20032;-74
2022/09/21 10:49:54;;;;;;;6.82;1.60;;;28.80;50.70;;;;;;4895906;29;20036;-74
2022/09/21 10:52:31;;;;;;;;;;;29.20;49.00;;;;;;4896842;29;20111;-75
2022/09/21 10:54:57;;;;;;;6.95;2.00;;;29.50;46.10;;;;;;4895812;29;19941;-73
2022/09/21 10:57:24;;;;;;;7.70;1.90;;;30.20;49.00;;;;;;4895578;29;20044;-73
2022/09/21 10:59:50;;;;;;;5.88;1.17;;;30.20;48.40;;;;;;4895678;29;20036;-71
2022/09/21 11:02:28;;;;;;;9.48;1.58;;;31.00;47.20;;;;;;4894844;29;20059;-73
2022/09/21 11:05:02;;;;;;;7.90;1.88;;;30.20;45.20;;;;;;4895876;29;20041;-72
2022/09/21 11:08:05;;;;;;;5.40;1.25;;;29.10;46.20;;;;;;4896180;29;20041;-75
2022/09/21 11:11:08;;;;;;;7.97;1.77;;;27.80;47.70;;;;;;4895881;29;20139;-72
2022/09/21 11:14:04;;;;;;;6.22;1.98;;;27.30;48.90;;;;;;4896165;29;20040;-74
2022/09/21 11:16:57;;;;;;;9.68;1.52;;;26.60;49.70;;;;;;4914757;29;20036;-75
2022/09/21 11:19:54;;;;;;;7.07;1.85;;;26.10;50.40;;;;;;4914771;29;20036;-76
2022/09/21 11:22:43;;;;;;;;;;;25.90;51.50;;;;;;4914785;29;20059;-74
2022/09/21 11:25:22;;;;;;;11.30;2.33;;;26.10;51.50;;;;;;4895110;29;19957;-76
2022/09/21 11:28:12;;;;;;;7.43;1.75;;;25.80;50.60;;;;;;4914183;29;20044;-73
2022/09/21 11:30:54;;;;;;;8.82;1.73;;;25.20;52.20;;;;;;4913736;29;20048;-75
2022/09/21 11:33:46;;;;;;;5.20;1.42;;;24.90;51.90;;;;;;4914219;29;20038;-75
2022/09/21 11:36:15;;;;;;;8.88;1.73;;;24.40;52.00;;;;;;4910502;29;20374;-76
2022/09/21 11:39:09;;;;;;;5.28;1.75;;;23.90;52.90;;;;;;4914114;29;20024;-75
2022/09/21 11:41:47;;;;;;;11.30;1.60;;;23.50;54.10;;;;;;4911303;29;20032;-74
2022/09/21 11:44:24;;;;;;;10.63;1.98;;;23.50;54.20;;;;;;4913692;29;20059;-75
2022/09/21 11:47:08;;;;;;;6.10;1.90;;;23.30;54.10;;;;;;4914808;29;20646;-73
2022/09/21 11:50:10;;;;;;;9.98;1.67;;;23.10;54.90;;;;;;4914581;29;20328;-73
2022/09/21 11:52:42;;;;;;;7.93;2.15;;;22.80;55.20;;;;;;4914743;29;20047;-72
2022/09/21 11:55:29;;;;;;;6.65;1.55;;;22.50;55.00;;;;;;4914015;29;20032;-74
2022/09/21 11:58:03;;;;;;;5.38;1.38;;;22.50;55.90;;;;;;4913967;29;20055;-72
2022/09/21 12:00:40;;;;;;;6.18;1.88;;;22.40;55.80;;;;;;4914261;29;20147;-72
2022/09/21 12:03:24;;;;;;;4.25;1.50;;;22.40;55.40;;;;;;4913038;29;20043;-73
2022/09/21 12:06:12;;;;;;;3.95;1.10;;;22.10;55.40;;;;;;4912958;29;20059;-73
2022/09/21 12:09:19;;;;;;;8.90;1.25;;;21.90;55.90;;;;;;4905410;29;20059;-73
2022/09/21 12:12:13;;;;;;;8.65;1.55;;;21.80;56.30;;;;;;4895174;29;20096;-73
2022/09/21 12:15:17;;;;;;;6.60;1.58;;;21.80;55.90;;;;;;4894305;29;20047;-74
2022/09/21 12:18:21;;;;;;;4.68;1.20;;;21.70;56.00;;;;;;4843729;29;20037;-72
2022/09/21 12:20:55;;;;;;;8.55;1.42;;;21.70;55.50;;;;;;4856195;29;20149;-72
2022/09/21 12:23:56;;;;;;;7.57;1.45;;;21.60;56.30;;;;;;4885694;29;20526;-73
2022/09/21 12:26:28;;;;;;;4.32;1.48;;;21.70;56.10;;;;;;4894500;29;20398;-71
2022/09/21 12:29:01;;;;;;;9.10;1.42;;;21.60;56.10;;;;;;4893935;29;20037;-71
2022/09/21 12:31:40;;;;;;;9.65;1.60;;;21.60;56.10;;;;;;4895696;29;20028;-74
2022/09/21 12:34:15;;;;;;;11.63;1.42;;;21.60;55.80;;;;;;4895685;29;20188;-72
2022/09/21 12:36:57;;;;;;;4.85;1.25;;;21.50;55.70;;;;;;4894116;29;20036;-72
2022/09/21 12:39:38;;;;;;;8.07;1.10;;;21.40;56.00;;;;;;4895160;29;20041;-73
2022/09/21 12:42:40;;;;;;;6.85;1.77;;;21.40;55.50;;;;;;4895583;29;20037;-71
2022/09/21 12:45:39;;;;;;;6.40;1.15;;;21.20;55.30;;;;;;4895167;29;20525;-73
2022/09/21 12:48:13;;;;;;;4.72;0.90;;;21.20;55.90;;;;;;4895139;29;20040;-73
2022/09/21 12:50:43;;;;;;;3.05;1.20;;;21.10;56.00;;;;;;4895046;29;20028;-72
2022/09/21 12:53:17;;;;;;;9.20;1.38;;;21.00;56.30;;;;;;4895064;29;20064;-73
2022/09/21 12:55:57;;;;;;;5.35;1.10;;;20.90;56.30;;;;;;4897323;29;20067;-73
2022/09/21 12:58:44;;;;;;;5.22;1.60;;;20.90;56.10;;;;;;4898647;29;20206;-73
2022/09/21 13:01:10;;;;;;;4.93;1.00;;;20.80;56.30;;;;;;4897393;29;20120;-74
2022/09/21 13:03:43;;;;;;;6.05;1.30;;;20.70;56.50;;;;;;4898199;29;20029;-73
2022/09/21 13:06:45;;;;;;;5.25;1.25;;;20.50;56.60;;;;;;4898344;29;20115;-73
2022/09/21 13:09:15;;;;;;;9.85;1.50;;;20.50;56.90;;;;;;4908040;29;20040;-73
2022/09/21 13:12:17;;;;;;;4.38;1.20;;;20.40;56.90;;;;;;4916944;29;20031;-71
2022/09/21 13:14:47;;;;;;;8.50;2.03;;;20.40;57.10;;;;;;4909167;29;20039;-73
2022/09/21 13:17:26;;;;;;;6.40;1.30;;;20.40;56.90;;;;;;4916825;29;20047;-75